Port Dover, Canada
Current Conditions -  °F | °C
As of 9:00 AM on Sunday 23 Nov 2014 (Local Time) from CYHM Reporting Station
Overcast Overcast  
Wind Chill: 40°   Ceiling: 3000
Heat Index: 45°   Visibility: 15mi
Dew Point: 39°   Wind: 8mph
Humidity: 81%   Direction: 190°S
Pressure: 30"   Gusts: NA
Location:  42.78°N, 80.2°W
Report Text: CYHM 231400Z 19007KT 15SM OVC030 07/04 A3000 RMK SC8 SLP164
Loading
Personal Weather Stations






























Interactive Weather Map New forecast layout! Learn more

10-Day Weather Forecast

Advertisements
Track Severe Weather on mobile